sensor_id;sensor_type;location;lat;lon;timestamp;P1;durP1;ratioP1;P2;durP2;ratioP2
22949;SDS011;11641;51.018;4.474;2022-09-29T00:02:11;11.65;;;8.20;;
22949;SDS011;11641;51.018;4.474;2022-09-29T00:04:37;13.63;;;7.45;;
22949;SDS011;11641;51.018;4.474;2022-09-29T00:07:06;9.32;;;7.70;;
22949;SDS011;11641;51.018;4.474;2022-09-29T00:09:32;10.82;;;7.57;;
22949;SDS011;11641;51.018;4.474;2022-09-29T00:12:00;12.88;;;7.57;;
22949;SDS011;11641;51.018;4.474;2022-09-29T00:14:27;10.32;;;7.30;;
22949;SDS011;11641;51.018;4.474;2022-09-29T00:16:55;11.10;;;7.35;;
22949;SDS011;11641;51.018;4.474;2022-09-29T00:19:23;10.23;;;6.68;;
22949;SDS011;11641;51.018;4.474;2022-09-29T00:21:49;11.60;;;7.18;;
22949;SDS011;11641;51.018;4.474;2022-09-29T00:24:15;14.60;;;7.57;;
22949;SDS011;11641;51.018;4.474;2022-09-29T00:26:45;12.82;;;7.15;;
22949;SDS011;11641;51.018;4.474;2022-09-29T00:29:12;9.57;;;7.25;;
22949;SDS011;11641;51.018;4.474;2022-09-29T00:31:44;13.43;;;7.15;;
22949;SDS011;11641;51.018;4.474;2022-09-29T00:34:12;8.77;;;6.55;;
22949;SDS011;11641;51.018;4.474;2022-09-29T00:36:37;9.27;;;6.57;;
22949;SDS011;11641;51.018;4.474;2022-09-29T00:39:10;12.30;;;6.75;;
22949;SDS011;11641;51.018;4.474;2022-09-29T00:41:43;12.27;;;6.70;;
22949;SDS011;11641;51.018;4.474;2022-09-29T00:46:43;11.18;;;6.68;;
22949;SDS011;11641;51.018;4.474;2022-09-29T00:49:22;13.05;;;7.00;;
22949;SDS011;11641;51.018;4.474;2022-09-29T00:52:00;10.38;;;6.78;;
22949;SDS011;11641;51.018;4.474;2022-09-29T00:54:42;17.17;;;6.25;;
22949;SDS011;11641;51.018;4.474;2022-09-29T00:57:11;10.37;;;6.80;;
22949;SDS011;11641;51.018;4.474;2022-09-29T00:59:44;11.43;;;6.82;;
22949;SDS011;11641;51.018;4.474;2022-09-29T01:02:24;11.07;;;6.10;;
22949;SDS011;11641;51.018;4.474;2022-09-29T01:04:55;13.50;;;6.57;;
22949;SDS011;11641;51.018;4.474;2022-09-29T01:07:27;8.45;;;6.15;;
22949;SDS011;11641;51.018;4.474;2022-09-29T01:09:56;10.88;;;6.10;;
22949;SDS011;11641;51.018;4.474;2022-09-29T01:12:22;12.18;;;6.10;;
22949;SDS011;11641;51.018;4.474;2022-09-29T01:14:52;8.77;;;6.32;;
22949;SDS011;11641;51.018;4.474;2022-09-29T01:17:19;11.50;;;6.50;;
22949;SDS011;11641;51.018;4.474;2022-09-29T01:39:09;13.55;;;6.07;;
22949;SDS011;11641;51.018;4.474;2022-09-29T01:42:02;8.98;;;5.72;;
22949;SDS011;11641;51.018;4.474;2022-09-29T01:44:39;9.45;;;5.93;;
22949;SDS011;11641;51.018;4.474;2022-09-29T01:47:18;7.85;;;5.97;;
22949;SDS011;11641;51.018;4.474;2022-09-29T01:49:58;8.85;;;6.07;;
22949;SDS011;11641;51.018;4.474;2022-09-29T01:52:31;11.35;;;6.10;;
22949;SDS011;11641;51.018;4.474;2022-09-29T01:55:03;9.38;;;6.78;;
22949;SDS011;11641;51.018;4.474;2022-09-29T01:57:36;8.77;;;6.00;;
22949;SDS011;11641;51.018;4.474;2022-09-29T02:00:20;8.90;;;5.63;;
22949;SDS011;11641;51.018;4.474;2022-09-29T02:02:57;7.43;;;5.75;;
22949;SDS011;11641;51.018;4.474;2022-09-29T02:05:51;11.68;;;6.03;;
22949;SDS011;11641;51.018;4.474;2022-09-29T02:08:27;13.05;;;6.47;;
22949;SDS011;11641;51.018;4.474;2022-09-29T02:11:04;9.63;;;6.50;;
22949;SDS011;11641;51.018;4.474;2022-09-29T02:13:34;9.90;;;6.63;;
22949;SDS011;11641;51.018;4.474;2022-09-29T02:16:03;11.88;;;6.55;;
22949;SDS011;11641;51.018;4.474;2022-09-29T02:18:36;14.95;;;7.72;;
22949;SDS011;11641;51.018;4.474;2022-09-29T02:21:22;9.27;;;6.82;;
22949;SDS011;11641;51.018;4.474;2022-09-29T02:23:50;12.65;;;7.55;;
22949;SDS011;11641;51.018;4.474;2022-09-29T02:26:22;11.70;;;6.50;;
22949;SDS011;11641;51.018;4.474;2022-09-29T02:28:50;11.23;;;6.88;;
22949;SDS011;11641;51.018;4.474;2022-09-29T02:31:16;13.68;;;7.30;;
22949;SDS011;11641;51.018;4.474;2022-09-29T02:33:45;11.68;;;6.20;;
22949;SDS011;11641;51.018;4.474;2022-09-29T02:51:49;13.73;;;6.55;;
22949;SDS011;11641;51.018;4.474;2022-09-29T02:54:30;18.55;;;6.68;;
22949;SDS011;11641;51.018;4.474;2022-09-29T02:59:57;10.85;;;6.78;;
22949;SDS011;11641;51.018;4.474;2022-09-29T03:02:30;9.38;;;6.50;;
22949;SDS011;11641;51.018;4.474;2022-09-29T03:04:56;12.45;;;6.80;;
22949;SDS011;11641;51.018;4.474;2022-09-29T03:07:27;12.52;;;6.05;;
22949;SDS011;11641;51.018;4.474;2022-09-29T03:09:55;11.65;;;6.50;;
22949;SDS011;11641;51.018;4.474;2022-09-29T03:12:21;11.10;;;6.20;;
22949;SDS011;11641;51.018;4.474;2022-09-29T03:14:48;13.98;;;6.47;;
22949;SDS011;11641;51.018;4.474;2022-09-29T03:17:14;11.35;;;6.25;;
22949;SDS011;11641;51.018;4.474;2022-09-29T03:19:43;11.55;;;6.80;;
22949;SDS011;11641;51.018;4.474;2022-09-29T03:22:08;10.20;;;6.93;;
22949;SDS011;11641;51.018;4.474;2022-09-29T03:24:34;17.77;;;6.78;;
22949;SDS011;11641;51.018;4.474;2022-09-29T03:27:02;13.57;;;6.25;;
22949;SDS011;11641;51.018;4.474;2022-09-29T03:29:29;10.38;;;7.03;;
22949;SDS011;11641;51.018;4.474;2022-09-29T03:31:55;10.00;;;6.55;;
22949;SDS011;11641;51.018;4.474;2022-09-29T03:34:22;9.82;;;6.80;;
22949;SDS011;11641;51.018;4.474;2022-09-29T03:36:52;8.85;;;6.30;;
22949;SDS011;11641;51.018;4.474;2022-09-29T03:39:24;11.73;;;6.90;;
22949;SDS011;11641;51.018;4.474;2022-09-29T03:41:53;13.90;;;7.03;;
22949;SDS011;11641;51.018;4.474;2022-09-29T03:44:21;11.40;;;6.85;;
22949;SDS011;11641;51.018;4.474;2022-09-29T03:46:47;16.02;;;6.15;;
22949;SDS011;11641;51.018;4.474;2022-09-29T03:49:20;13.10;;;7.03;;
22949;SDS011;11641;51.018;4.474;2022-09-29T03:51:46;10.68;;;6.80;;
22949;SDS011;11641;51.018;4.474;2022-09-29T03:54:12;13.05;;;6.47;;
22949;SDS011;11641;51.018;4.474;2022-09-29T03:56:37;10.98;;;6.70;;
22949;SDS011;11641;51.018;4.474;2022-09-29T03:59:08;12.27;;;6.72;;
22949;SDS011;11641;51.018;4.474;2022-09-29T04:01:38;9.65;;;6.53;;
22949;SDS011;11641;51.018;4.474;2022-09-29T04:04:04;11.50;;;7.18;;
22949;SDS011;11641;51.018;4.474;2022-09-29T04:06:36;10.75;;;6.28;;
22949;SDS011;11641;51.018;4.474;2022-09-29T04:09:05;12.63;;;6.40;;
22949;SDS011;11641;51.018;4.474;2022-09-29T04:11:32;9.40;;;6.10;;
22949;SDS011;11641;51.018;4.474;2022-09-29T04:14:00;10.73;;;6.55;;
22949;SDS011;11641;51.018;4.474;2022-09-29T04:16:26;9.77;;;6.63;;
22949;SDS011;11641;51.018;4.474;2022-09-29T04:18:52;12.15;;;6.88;;
22949;SDS011;11641;51.018;4.474;2022-09-29T04:21:17;10.02;;;6.22;;
22949;SDS011;11641;51.018;4.474;2022-09-29T04:23:49;12.68;;;6.30;;
22949;SDS011;11641;51.018;4.474;2022-09-29T04:26:19;9.45;;;5.93;;
22949;SDS011;11641;51.018;4.474;2022-09-29T04:28:45;10.63;;;5.75;;
22949;SDS011;11641;51.018;4.474;2022-09-29T04:31:11;12.90;;;7.00;;
22949;SDS011;11641;51.018;4.474;2022-09-29T04:33:37;11.50;;;6.72;;
22949;SDS011;11641;51.018;4.474;2022-09-29T04:36:03;12.40;;;6.30;;
22949;SDS011;11641;51.018;4.474;2022-09-29T04:38:35;13.52;;;7.05;;
22949;SDS011;11641;51.018;4.474;2022-09-29T04:41:01;9.55;;;5.70;;
22949;SDS011;11641;51.018;4.474;2022-09-29T04:43:28;11.60;;;6.28;;
22949;SDS011;11641;51.018;4.474;2022-09-29T04:46:06;10.75;;;6.10;;
22949;SDS011;11641;51.018;4.474;2022-09-29T04:48:33;9.65;;;6.45;;
22949;SDS011;11641;51.018;4.474;2022-09-29T04:50:59;9.70;;;6.47;;
22949;SDS011;11641;51.018;4.474;2022-09-29T04:53:28;16.60;;;6.95;;
22949;SDS011;11641;51.018;4.474;2022-09-29T04:55:56;12.40;;;7.18;;
22949;SDS011;11641;51.018;4.474;2022-09-29T04:58:24;10.82;;;6.43;;
22949;SDS011;11641;51.018;4.474;2022-09-29T05:00:49;11.98;;;6.60;;
22949;SDS011;11641;51.018;4.474;2022-09-29T05:03:15;13.30;;;6.13;;
22949;SDS011;11641;51.018;4.474;2022-09-29T05:05:41;13.85;;;6.78;;
22949;SDS011;11641;51.018;4.474;2022-09-29T05:08:07;13.43;;;6.97;;
22949;SDS011;11641;51.018;4.474;2022-09-29T05:10:34;14.02;;;7.38;;
22949;SDS011;11641;51.018;4.474;2022-09-29T05:13:00;14.52;;;8.10;;
22949;SDS011;11641;51.018;4.474;2022-09-29T05:15:26;17.52;;;7.97;;
22949;SDS011;11641;51.018;4.474;2022-09-29T05:17:53;16.30;;;8.82;;
22949;SDS011;11641;51.018;4.474;2022-09-29T05:20:19;17.30;;;7.95;;
22949;SDS011;11641;51.018;4.474;2022-09-29T05:22:47;11.02;;;7.57;;
22949;SDS011;11641;51.018;4.474;2022-09-29T05:25:13;16.58;;;7.47;;
22949;SDS011;11641;51.018;4.474;2022-09-29T05:27:40;11.20;;;7.43;;
22949;SDS011;11641;51.018;4.474;2022-09-29T05:30:09;14.90;;;8.30;;
22949;SDS011;11641;51.018;4.474;2022-09-29T05:32:35;16.38;;;8.57;;
22949;SDS011;11641;51.018;4.474;2022-09-29T05:35:01;17.85;;;9.32;;
22949;SDS011;11641;51.018;4.474;2022-09-29T05:37:29;16.30;;;9.40;;
22949;SDS011;11641;51.018;4.474;2022-09-29T05:39:55;15.85;;;8.93;;
22949;SDS011;11641;51.018;4.474;2022-09-29T05:42:23;14.13;;;8.98;;
22949;SDS011;11641;51.018;4.474;2022-09-29T05:44:53;15.13;;;8.85;;
22949;SDS011;11641;51.018;4.474;2022-09-29T05:47:19;21.08;;;9.95;;
22949;SDS011;11641;51.018;4.474;2022-09-29T05:49:48;19.88;;;9.35;;
22949;SDS011;11641;51.018;4.474;2022-09-29T05:52:14;12.60;;;8.23;;
22949;SDS011;11641;51.018;4.474;2022-09-29T05:54:40;17.38;;;8.95;;
22949;SDS011;11641;51.018;4.474;2022-09-29T05:57:05;14.10;;;8.73;;
22949;SDS011;11641;51.018;4.474;2022-09-29T05:59:31;13.48;;;9.93;;
22949;SDS011;11641;51.018;4.474;2022-09-29T06:02:05;16.48;;;8.85;;
22949;SDS011;11641;51.018;4.474;2022-09-29T06:04:30;15.23;;;9.70;;
22949;SDS011;11641;51.018;4.474;2022-09-29T06:06:57;17.15;;;9.73;;
22949;SDS011;11641;51.018;4.474;2022-09-29T06:09:26;17.20;;;10.07;;
22949;SDS011;11641;51.018;4.474;2022-09-29T06:11:51;20.45;;;9.73;;
22949;SDS011;11641;51.018;4.474;2022-09-29T06:14:17;18.70;;;10.35;;
22949;SDS011;11641;51.018;4.474;2022-09-29T06:16:48;19.50;;;9.85;;
22949;SDS011;11641;51.018;4.474;2022-09-29T06:19:16;23.48;;;10.38;;
22949;SDS011;11641;51.018;4.474;2022-09-29T06:21:45;15.02;;;9.57;;
22949;SDS011;11641;51.018;4.474;2022-09-29T06:24:15;18.88;;;9.73;;
22949;SDS011;11641;51.018;4.474;2022-09-29T06:26:45;16.77;;;9.30;;
22949;SDS011;11641;51.018;4.474;2022-09-29T06:29:11;14.75;;;8.98;;
22949;SDS011;11641;51.018;4.474;2022-09-29T06:31:38;18.98;;;9.10;;
22949;SDS011;11641;51.018;4.474;2022-09-29T06:34:07;16.45;;;8.63;;
22949;SDS011;11641;51.018;4.474;2022-09-29T06:36:40;18.17;;;9.15;;
22949;SDS011;11641;51.018;4.474;2022-09-29T06:39:26;18.30;;;8.68;;
22949;SDS011;11641;51.018;4.474;2022-09-29T06:41:52;15.55;;;9.15;;
22949;SDS011;11641;51.018;4.474;2022-09-29T06:44:24;15.05;;;8.60;;
22949;SDS011;11641;51.018;4.474;2022-09-29T06:46:52;23.60;;;9.57;;
22949;SDS011;11641;51.018;4.474;2022-09-29T06:49:19;21.13;;;9.43;;
22949;SDS011;11641;51.018;4.474;2022-09-29T06:51:48;23.58;;;9.90;;
22949;SDS011;11641;51.018;4.474;2022-09-29T06:54:17;18.77;;;9.60;;
22949;SDS011;11641;51.018;4.474;2022-09-29T06:56:49;15.32;;;9.07;;
22949;SDS011;11641;51.018;4.474;2022-09-29T06:59:16;22.70;;;9.30;;
22949;SDS011;11641;51.018;4.474;2022-09-29T07:01:43;22.00;;;8.98;;
22949;SDS011;11641;51.018;4.474;2022-09-29T07:04:14;17.02;;;8.10;;
22949;SDS011;11641;51.018;4.474;2022-09-29T07:06:42;19.50;;;7.93;;
22949;SDS011;11641;51.018;4.474;2022-09-29T07:09:13;16.10;;;8.20;;
22949;SDS011;11641;51.018;4.474;2022-09-29T07:11:42;17.60;;;8.30;;
22949;SDS011;11641;51.018;4.474;2022-09-29T07:14:14;20.23;;;8.38;;
22949;SDS011;11641;51.018;4.474;2022-09-29T07:16:41;17.35;;;8.73;;
22949;SDS011;11641;51.018;4.474;2022-09-29T07:19:07;17.90;;;9.15;;
22949;SDS011;11641;51.018;4.474;2022-09-29T07:21:33;20.73;;;9.70;;
22949;SDS011;11641;51.018;4.474;2022-09-29T07:24:00;22.50;;;8.90;;
22949;SDS011;11641;51.018;4.474;2022-09-29T07:26:26;17.95;;;9.85;;
22949;SDS011;11641;51.018;4.474;2022-09-29T07:28:55;21.17;;;9.70;;
22949;SDS011;11641;51.018;4.474;2022-09-29T07:31:21;18.15;;;9.68;;
22949;SDS011;11641;51.018;4.474;2022-09-29T07:33:48;23.45;;;9.50;;
22949;SDS011;11641;51.018;4.474;2022-09-29T07:36:16;19.20;;;9.05;;
22949;SDS011;11641;51.018;4.474;2022-09-29T07:38:47;18.63;;;9.07;;
22949;SDS011;11641;51.018;4.474;2022-09-29T07:41:14;23.27;;;8.65;;
22949;SDS011;11641;51.018;4.474;2022-09-29T07:43:44;12.73;;;7.93;;
22949;SDS011;11641;51.018;4.474;2022-09-29T07:46:11;14.40;;;8.07;;
22949;SDS011;11641;51.018;4.474;2022-09-29T07:48:38;16.80;;;7.82;;
22949;SDS011;11641;51.018;4.474;2022-09-29T07:53:32;13.80;;;7.88;;
22949;SDS011;11641;51.018;4.474;2022-09-29T07:56:04;15.82;;;8.23;;
22949;SDS011;11641;51.018;4.474;2022-09-29T07:58:44;14.02;;;6.75;;
22949;SDS011;11641;51.018;4.474;2022-09-29T08:01:14;12.63;;;6.65;;
22949;SDS011;11641;51.018;4.474;2022-09-29T08:03:47;11.48;;;7.15;;
22949;SDS011;11641;51.018;4.474;2022-09-29T08:06:18;10.70;;;6.75;;
22949;SDS011;11641;51.018;4.474;2022-09-29T08:08:48;12.55;;;6.95;;
22949;SDS011;11641;51.018;4.474;2022-09-29T08:11:18;11.93;;;6.70;;
22949;SDS011;11641;51.018;4.474;2022-09-29T08:13:47;9.45;;;6.53;;
22949;SDS011;11641;51.018;4.474;2022-09-29T08:16:15;9.60;;;6.60;;
22949;SDS011;11641;51.018;4.474;2022-09-29T08:18:41;12.40;;;6.20;;
22949;SDS011;11641;51.018;4.474;2022-09-29T08:21:07;12.27;;;6.43;;
22949;SDS011;11641;51.018;4.474;2022-09-29T08:23:35;11.90;;;6.63;;
22949;SDS011;11641;51.018;4.474;2022-09-29T08:26:03;10.77;;;7.03;;
22949;SDS011;11641;51.018;4.474;2022-09-29T08:28:31;12.65;;;6.70;;
22949;SDS011;11641;51.018;4.474;2022-09-29T08:31:06;11.77;;;5.80;;
22949;SDS011;11641;51.018;4.474;2022-09-29T08:33:37;10.32;;;6.32;;
22949;SDS011;11641;51.018;4.474;2022-09-29T08:36:03;10.65;;;6.10;;
22949;SDS011;11641;51.018;4.474;2022-09-29T08:38:42;8.35;;;5.20;;
22949;SDS011;11641;51.018;4.474;2022-09-29T08:43:44;12.65;;;5.72;;
22949;SDS011;11641;51.018;4.474;2022-09-29T08:49:01;8.40;;;5.30;;
22949;SDS011;11641;51.018;4.474;2022-09-29T08:51:33;9.80;;;5.53;;
22949;SDS011;11641;51.018;4.474;2022-09-29T08:54:20;11.20;;;5.10;;
22949;SDS011;11641;51.018;4.474;2022-09-29T08:56:49;9.15;;;5.10;;
22949;SDS011;11641;51.018;4.474;2022-09-29T08:59:15;8.32;;;4.50;;
22949;SDS011;11641;51.018;4.474;2022-09-29T09:01:50;5.72;;;3.53;;
22949;SDS011;11641;51.018;4.474;2022-09-29T09:19:08;5.03;;;2.95;;
22949;SDS011;11641;51.018;4.474;2022-09-29T09:21:58;13.95;;;9.65;;
22949;SDS011;11641;51.018;4.474;2022-09-29T09:24:38;6.63;;;3.17;;
22949;SDS011;11641;51.018;4.474;2022-09-29T09:27:12;4.65;;;3.40;;
22949;SDS011;11641;51.018;4.474;2022-09-29T09:29:43;5.70;;;2.67;;
22949;SDS011;11641;51.018;4.474;2022-09-29T09:32:24;3.63;;;2.42;;
22949;SDS011;11641;51.018;4.474;2022-09-29T09:37:32;3.92;;;2.60;;
22949;SDS011;11641;51.018;4.474;2022-09-29T09:40:05;4.18;;;1.95;;
22949;SDS011;11641;51.018;4.474;2022-09-29T09:42:41;6.70;;;2.60;;
22949;SDS011;11641;51.018;4.474;2022-09-29T09:45:30;3.45;;;2.05;;
22949;SDS011;11641;51.018;4.474;2022-09-29T09:48:29;4.32;;;2.15;;
22949;SDS011;11641;51.018;4.474;2022-09-29T09:53:48;5.85;;;1.77;;
22949;SDS011;11641;51.018;4.474;2022-09-29T09:59:09;2.63;;;1.60;;
22949;SDS011;11641;51.018;4.474;2022-09-29T10:01:47;3.90;;;1.38;;
22949;SDS011;11641;51.018;4.474;2022-09-29T10:04:13;2.78;;;1.58;;
22949;SDS011;11641;51.018;4.474;2022-09-29T10:06:39;2.58;;;1.67;;
22949;SDS011;11641;51.018;4.474;2022-09-29T10:09:08;2.95;;;1.25;;
22949;SDS011;11641;51.018;4.474;2022-09-29T10:11:37;2.75;;;1.70;;
22949;SDS011;11641;51.018;4.474;2022-09-29T10:14:15;3.67;;;1.58;;
22949;SDS011;11641;51.018;4.474;2022-09-29T10:19:22;3.22;;;1.13;;
22949;SDS011;11641;51.018;4.474;2022-09-29T10:22:12;2.45;;;1.38;;
22949;SDS011;11641;51.018;4.474;2022-09-29T10:24:39;1.98;;;1.13;;
22949;SDS011;11641;51.018;4.474;2022-09-29T10:27:05;3.38;;;1.58;;
22949;SDS011;11641;51.018;4.474;2022-09-29T10:32:09;2.83;;;1.73;;
22949;SDS011;11641;51.018;4.474;2022-09-29T10:34:39;3.40;;;1.20;;
22949;SDS011;11641;51.018;4.474;2022-09-29T10:37:17;4.25;;;1.60;;
22949;SDS011;11641;51.018;4.474;2022-09-29T10:39:47;1.45;;;0.65;;
22949;SDS011;11641;51.018;4.474;2022-09-29T10:42:24;1.55;;;0.55;;
22949;SDS011;11641;51.018;4.474;2022-09-29T10:45:15;1.73;;;0.90;;
22949;SDS011;11641;51.018;4.474;2022-09-29T10:50:30;2.03;;;1.10;;
22949;SDS011;11641;51.018;4.474;2022-09-29T10:53:02;4.00;;;1.20;;
22949;SDS011;11641;51.018;4.474;2022-09-29T10:55:47;2.28;;;1.30;;
22949;SDS011;11641;51.018;4.474;2022-09-29T11:04:03;2.78;;;1.10;;
22949;SDS011;11641;51.018;4.474;2022-09-29T11:06:32;1.20;;;0.68;;
22949;SDS011;11641;51.018;4.474;2022-09-29T11:09:02;1.95;;;0.77;;
22949;SDS011;11641;51.018;4.474;2022-09-29T11:11:33;3.95;;;0.73;;
22949;SDS011;11641;51.018;4.474;2022-09-29T11:14:01;3.00;;;0.88;;
22949;SDS011;11641;51.018;4.474;2022-09-29T11:16:34;2.55;;;0.80;;
22949;SDS011;11641;51.018;4.474;2022-09-29T11:19:06;3.05;;;0.80;;
22949;SDS011;11641;51.018;4.474;2022-09-29T11:45:08;1.10;;;0.40;;
22949;SDS011;11641;51.018;4.474;2022-09-29T11:58:41;2.42;;;0.68;;
22949;SDS011;11641;51.018;4.474;2022-09-29T12:12:57;2.67;;;0.68;;
22949;SDS011;11641;51.018;4.474;2022-09-29T12:15:48;1.83;;;0.60;;
22949;SDS011;11641;51.018;4.474;2022-09-29T12:18:38;2.53;;;1.08;;
22949;SDS011;11641;51.018;4.474;2022-09-29T12:21:14;2.47;;;1.00;;
22949;SDS011;11641;51.018;4.474;2022-09-29T12:23:45;1.73;;;0.88;;
22949;SDS011;11641;51.018;4.474;2022-09-29T12:26:17;2.35;;;0.70;;
22949;SDS011;11641;51.018;4.474;2022-09-29T12:28:53;4.93;;;0.60;;
22949;SDS011;11641;51.018;4.474;2022-09-29T12:31:26;3.92;;;0.60;;
22949;SDS011;11641;51.018;4.474;2022-09-29T12:36:33;2.42;;;0.70;;
22949;SDS011;11641;51.018;4.474;2022-09-29T12:42:09;2.20;;;0.70;;
22949;SDS011;11641;51.018;4.474;2022-09-29T12:50:32;4.63;;;1.27;;
22949;SDS011;11641;51.018;4.474;2022-09-29T12:53:20;4.75;;;1.00;;
22949;SDS011;11641;51.018;4.474;2022-09-29T12:56:07;5.20;;;1.17;;
22949;SDS011;11641;51.018;4.474;2022-09-29T12:58:53;2.83;;;1.00;;
22949;SDS011;11641;51.018;4.474;2022-09-29T13:01:34;4.95;;;2.00;;
22949;SDS011;11641;51.018;4.474;2022-09-29T13:09:55;1.25;;;0.50;;
22949;SDS011;11641;51.018;4.474;2022-09-29T13:15:51;4.47;;;0.60;;
22949;SDS011;11641;51.018;4.474;2022-09-29T13:21:36;2.80;;;0.68;;
22949;SDS011;11641;51.018;4.474;2022-09-29T13:30:12;2.25;;;0.60;;
22949;SDS011;11641;51.018;4.474;2022-09-29T13:32:37;2.22;;;0.60;;
22949;SDS011;11641;51.018;4.474;2022-09-29T13:35:20;5.30;;;0.60;;
22949;SDS011;11641;51.018;4.474;2022-09-29T13:37:52;2.75;;;1.20;;
22949;SDS011;11641;51.018;4.474;2022-09-29T13:42:47;2.55;;;0.88;;
22949;SDS011;11641;51.018;4.474;2022-09-29T13:47:45;2.30;;;0.60;;
22949;SDS011;11641;51.018;4.474;2022-09-29T13:53:26;2.45;;;0.50;;
22949;SDS011;11641;51.018;4.474;2022-09-29T13:58:32;2.10;;;0.68;;
22949;SDS011;11641;51.018;4.474;2022-09-29T14:01:02;2.87;;;0.60;;
22949;SDS011;11641;51.018;4.474;2022-09-29T14:03:34;5.18;;;0.98;;
22949;SDS011;11641;51.018;4.474;2022-09-29T14:06:05;2.13;;;0.68;;
22949;SDS011;11641;51.018;4.474;2022-09-29T14:08:48;3.50;;;0.68;;
22949;SDS011;11641;51.018;4.474;2022-09-29T14:19:33;2.85;;;0.57;;
22949;SDS011;11641;51.018;4.474;2022-09-29T14:27:45;2.15;;;0.57;;
22949;SDS011;11641;51.018;4.474;2022-09-29T14:36:00;2.80;;;0.70;;
22949;SDS011;11641;51.018;4.474;2022-09-29T14:38:38;2.20;;;0.68;;
22949;SDS011;11641;51.018;4.474;2022-09-29T14:43:45;2.38;;;0.80;;
22949;SDS011;11641;51.018;4.474;2022-09-29T14:58:03;3.05;;;0.90;;
22949;SDS011;11641;51.018;4.474;2022-09-29T15:06:17;2.17;;;0.70;;
22949;SDS011;11641;51.018;4.474;2022-09-29T15:11:31;4.60;;;0.60;;
22949;SDS011;11641;51.018;4.474;2022-09-29T15:14:03;2.67;;;1.05;;
22949;SDS011;11641;51.018;4.474;2022-09-29T15:16:56;3.35;;;0.80;;
22949;SDS011;11641;51.018;4.474;2022-09-29T15:22:16;3.05;;;0.80;;
22949;SDS011;11641;51.018;4.474;2022-09-29T15:27:24;1.85;;;0.90;;
22949;SDS011;11641;51.018;4.474;2022-09-29T15:29:59;3.58;;;0.70;;
22949;SDS011;11641;51.018;4.474;2022-09-29T15:32:26;2.17;;;0.80;;
22949;SDS011;11641;51.018;4.474;2022-09-29T15:35:04;2.42;;;0.73;;
22949;SDS011;11641;51.018;4.474;2022-09-29T15:40:35;3.15;;;1.00;;
22949;SDS011;11641;51.018;4.474;2022-09-29T15:43:02;3.47;;;0.95;;
22949;SDS011;11641;51.018;4.474;2022-09-29T15:45:43;4.25;;;1.35;;
22949;SDS011;11641;51.018;4.474;2022-09-29T15:48:18;3.45;;;1.02;;
22949;SDS011;11641;51.018;4.474;2022-09-29T15:50:46;3.28;;;1.75;;
22949;SDS011;11641;51.018;4.474;2022-09-29T15:53:12;5.60;;;1.88;;
22949;SDS011;11641;51.018;4.474;2022-09-29T15:55:38;2.55;;;1.23;;
22949;SDS011;11641;51.018;4.474;2022-09-29T16:00:50;2.85;;;1.20;;
22949;SDS011;11641;51.018;4.474;2022-09-29T16:03:28;12.82;;;4.75;;
22949;SDS011;11641;51.018;4.474;2022-09-29T16:06:27;5.80;;;1.45;;
22949;SDS011;11641;51.018;4.474;2022-09-29T16:09:00;2.83;;;1.42;;
22949;SDS011;11641;51.018;4.474;2022-09-29T16:14:02;4.38;;;2.35;;
22949;SDS011;11641;51.018;4.474;2022-09-29T16:16:33;2.95;;;1.25;;
22949;SDS011;11641;51.018;4.474;2022-09-29T16:19:08;3.15;;;1.00;;
22949;SDS011;11641;51.018;4.474;2022-09-29T16:21:41;2.90;;;1.10;;
22949;SDS011;11641;51.018;4.474;2022-09-29T16:24:14;3.80;;;1.23;;
22949;SDS011;11641;51.018;4.474;2022-09-29T16:31:43;2.35;;;0.90;;
22949;SDS011;11641;51.018;4.474;2022-09-29T16:39:45;5.47;;;1.20;;
22949;SDS011;11641;51.018;4.474;2022-09-29T16:42:18;4.97;;;1.00;;
22949;SDS011;11641;51.018;4.474;2022-09-29T16:44:49;28.10;;;16.80;;
22949;SDS011;11641;51.018;4.474;2022-09-29T16:47:20;13.90;;;6.80;;
22949;SDS011;11641;51.018;4.474;2022-09-29T16:49:52;3.35;;;1.50;;
22949;SDS011;11641;51.018;4.474;2022-09-29T16:52:26;1.92;;;0.95;;
22949;SDS011;11641;51.018;4.474;2022-09-29T16:55:06;4.63;;;1.00;;
22949;SDS011;11641;51.018;4.474;2022-09-29T16:57:32;3.63;;;1.20;;
22949;SDS011;11641;51.018;4.474;2022-09-29T17:00:11;3.30;;;1.05;;
22949;SDS011;11641;51.018;4.474;2022-09-29T17:02:39;2.67;;;1.45;;
22949;SDS011;11641;51.018;4.474;2022-09-29T17:05:06;2.33;;;1.10;;
22949;SDS011;11641;51.018;4.474;2022-09-29T17:07:37;2.25;;;1.05;;
22949;SDS011;11641;51.018;4.474;2022-09-29T17:10:11;3.40;;;1.08;;
22949;SDS011;11641;51.018;4.474;2022-09-29T17:15:15;2.95;;;1.25;;
22949;SDS011;11641;51.018;4.474;2022-09-29T17:17:45;1.70;;;1.02;;
22949;SDS011;11641;51.018;4.474;2022-09-29T17:20:16;2.75;;;1.08;;
22949;SDS011;11641;51.018;4.474;2022-09-29T17:22:44;2.90;;;0.93;;
22949;SDS011;11641;51.018;4.474;2022-09-29T17:25:13;2.08;;;1.10;;
22949;SDS011;11641;51.018;4.474;2022-09-29T17:27:39;3.53;;;1.38;;
22949;SDS011;11641;51.018;4.474;2022-09-29T17:30:25;3.30;;;1.30;;
22949;SDS011;11641;51.018;4.474;2022-09-29T17:32:53;3.90;;;1.40;;
22949;SDS011;11641;51.018;4.474;2022-09-29T17:35:22;2.17;;;1.05;;
22949;SDS011;11641;51.018;4.474;2022-09-29T17:37:56;2.65;;;1.30;;
22949;SDS011;11641;51.018;4.474;2022-09-29T17:40:35;62.92;;;46.17;;
22949;SDS011;11641;51.018;4.474;2022-09-29T17:43:21;3.28;;;2.05;;
22949;SDS011;11641;51.018;4.474;2022-09-29T17:45:50;3.80;;;1.55;;
22949;SDS011;11641;51.018;4.474;2022-09-29T17:48:21;2.17;;;1.45;;
22949;SDS011;11641;51.018;4.474;2022-09-29T17:50:50;1.83;;;1.30;;
22949;SDS011;11641;51.018;4.474;2022-09-29T17:53:19;3.70;;;1.20;;
22949;SDS011;11641;51.018;4.474;2022-09-29T17:55:48;1.20;;;0.85;;
22949;SDS011;11641;51.018;4.474;2022-09-29T17:58:16;1.73;;;1.00;;
22949;SDS011;11641;51.018;4.474;2022-09-29T18:00:47;1.33;;;0.90;;
22949;SDS011;11641;51.018;4.474;2022-09-29T18:03:23;1.50;;;1.00;;
22949;SDS011;11641;51.018;4.474;2022-09-29T18:05:51;2.13;;;1.20;;
22949;SDS011;11641;51.018;4.474;2022-09-29T18:08:20;2.63;;;1.70;;
22949;SDS011;11641;51.018;4.474;2022-09-29T18:10:51;4.13;;;2.85;;
22949;SDS011;11641;51.018;4.474;2022-09-29T18:13:24;3.78;;;2.42;;
22949;SDS011;11641;51.018;4.474;2022-09-29T18:15:53;3.70;;;2.45;;
22949;SDS011;11641;51.018;4.474;2022-09-29T18:18:22;5.22;;;3.08;;
22949;SDS011;11641;51.018;4.474;2022-09-29T18:20:48;6.03;;;3.53;;
22949;SDS011;11641;51.018;4.474;2022-09-29T18:23:18;8.27;;;3.35;;
22949;SDS011;11641;51.018;4.474;2022-09-29T18:25:44;5.55;;;3.03;;
22949;SDS011;11641;51.018;4.474;2022-09-29T18:28:15;6.47;;;3.70;;
22949;SDS011;11641;51.018;4.474;2022-09-29T18:30:42;7.43;;;3.40;;
22949;SDS011;11641;51.018;4.474;2022-09-29T18:33:13;5.43;;;2.42;;
22949;SDS011;11641;51.018;4.474;2022-09-29T18:35:43;4.47;;;2.30;;
22949;SDS011;11641;51.018;4.474;2022-09-29T18:38:15;5.22;;;2.65;;
22949;SDS011;11641;51.018;4.474;2022-09-29T18:40:44;4.57;;;2.22;;
22949;SDS011;11641;51.018;4.474;2022-09-29T18:43:11;6.25;;;2.65;;
22949;SDS011;11641;51.018;4.474;2022-09-29T18:45:41;4.40;;;2.20;;
22949;SDS011;11641;51.018;4.474;2022-09-29T18:48:10;4.60;;;2.47;;
22949;SDS011;11641;51.018;4.474;2022-09-29T18:50:48;4.07;;;2.80;;
22949;SDS011;11641;51.018;4.474;2022-09-29T18:53:15;4.50;;;3.10;;
22949;SDS011;11641;51.018;4.474;2022-09-29T18:55:43;5.63;;;3.13;;
22949;SDS011;11641;51.018;4.474;2022-09-29T18:58:14;3.92;;;2.65;;
22949;SDS011;11641;51.018;4.474;2022-09-29T19:00:42;5.05;;;2.88;;
22949;SDS011;11641;51.018;4.474;2022-09-29T19:03:09;4.28;;;3.08;;
22949;SDS011;11641;51.018;4.474;2022-09-29T19:05:41;3.60;;;2.97;;